Time;durP1;ratioP1;P1;durP2;ratioP2;P2;SDS_P1;SDS_P2;PMS_P1;PMS_P2;Temp;Humidity;BMP_temperature;BMP_pressure;BME280_temperature;BME280_humidity;BME280_pressure;Samples;Min_cycle;Max_cycle;Signal;HPM_P1;HPM_P2
2023/07/05 00:00:55;;;;;;;6.13;1.27;;;;;;;23.72;47.31;100305.25;4918330;29;20100;-63
2023/07/05 00:03:20;;;;;;;2.03;1.23;;;;;;;23.73;48.26;100291.31;4937041;29;20460;-63
2023/07/05 00:05:46;;;;;;;2.17;1.25;;;;;;;23.74;47.98;100282.06;4936707;29;20094;-63
2023/07/05 00:08:12;;;;;;;3.05;1.50;;;;;;;23.77;48.50;100276.13;4937509;28;20032;-63
2023/07/05 00:10:37;;;;;;;2.03;1.33;;;;;;;23.75;47.98;100261.88;4920782;29;20035;-63
2023/07/05 00:13:03;;;;;;;2.97;1.30;;;;;;;23.71;47.68;100265.25;4936382;28;20032;-63
2023/07/05 00:15:29;;;;;;;2.45;1.10;;;;;;;23.65;48.22;100256.06;4936659;28;20043;-63
2023/07/05 00:17:55;;;;;;;4.07;1.17;;;;;;;23.59;47.75;100251.50;4952579;28;20035;-63
2023/07/05 00:20:20;;;;;;;3.95;1.50;;;;;;;23.55;48.07;100249.47;4936641;28;20042;-63
2023/07/05 00:22:46;;;;;;;2.20;1.75;;;;;;;23.54;49.09;100237.69;4952452;28;20108;-62
2023/07/05 00:25:11;;;;;;;1.60;1.10;;;;;;;23.52;48.56;100228.03;4936545;29;20444;-62
2023/07/05 00:27:36;;;;;;;1.48;0.98;;;;;;;23.51;49.14;100224.47;4936638;29;20031;-62
2023/07/05 00:30:02;;;;;;;1.95;1.50;;;;;;;23.52;48.92;100212.47;4919998;28;20043;-65
2023/07/05 00:32:28;;;;;;;2.13;1.20;;;;;;;23.51;49.32;100216.28;4936306;28;20039;-63
2023/07/05 00:34:53;;;;;;;3.72;1.23;;;;;;;23.52;49.39;100217.09;4935739;29;20048;-62
2023/07/05 00:37:18;;;;;;;2.75;0.95;;;;;;;23.53;48.82;100197.75;4935983;28;20120;-63
2023/07/05 00:39:44;;;;;;;3.35;1.35;;;;;;;23.55;49.05;100190.16;4936089;28;20488;-63
2023/07/05 00:42:09;;;;;;;7.60;1.35;;;;;;;23.61;48.55;100191.13;4935916;28;20036;-63
2023/07/05 00:44:36;;;;;;;1.88;1.02;;;;;;;23.65;48.99;100184.13;4935849;28;20419;-63
2023/07/05 00:47:07;;;;;;;1.88;1.10;;;;;;;23.73;48.41;100181.91;4935715;28;20036;-63
2023/07/05 00:49:33;;;;;;;2.72;1.30;;;;;;;23.80;48.49;100172.78;4935814;28;20456;-62
2023/07/05 00:52:00;;;;;;;3.20;1.35;;;;;;;23.86;49.02;100175.44;4935817;28;20421;-63
2023/07/05 00:54:30;;;;;;;3.42;0.93;;;;;;;23.96;48.77;100180.34;4935874;28;20038;-62
2023/07/05 00:57:00;;;;;;;2.28;1.30;;;;;;;23.98;48.76;100172.75;4935737;28;20536;-63
2023/07/05 00:59:28;;;;;;;1.17;1.05;;;;;;;24.06;48.88;100180.63;4935951;28;20093;-63
2023/07/05 01:01:53;;;;;;;2.17;1.00;;;;;;;24.12;48.58;100188.75;4937319;29;20040;-63
2023/07/05 01:04:19;;;;;;;3.13;1.00;;;;;;;24.12;48.65;100183.28;4920565;28;20036;-62
2023/07/05 01:06:44;;;;;;;2.53;1.00;;;;;;;24.15;49.08;100173.78;4935498;29;20349;-63
2023/07/05 01:09:10;;;;;;;4.65;1.30;;;;;;;24.16;48.73;100165.34;4919720;29;20044;-63
2023/07/05 01:11:43;;;;;;;4.53;0.95;;;;;;;24.18;48.68;100163.19;4932310;28;20056;-63
2023/07/05 01:14:53;;;;;;;2.42;1.20;;;;;;;24.10;49.48;100165.44;4934233;29;20411;-63
2023/07/05 01:17:32;;;;;;;3.50;0.70;;;;;;;24.02;49.38;100158.38;4940254;29;20042;-63
2023/07/05 01:20:04;;;;;;;2.20;0.90;;;;;;;23.86;49.68;100148.09;4955012;28;20039;-63
2023/07/05 01:22:58;;;;;;;1.77;1.02;;;;;;;23.81;50.36;100156.16;4954351;28;20534;-63
2023/07/05 01:25:48;;;;;;;3.05;0.80;;;;;;;23.75;50.01;100157.91;4954264;28;20032;-63
2023/07/05 01:28:28;;;;;;;1.50;0.73;;;;;;;23.72;49.60;100163.00;4953483;28;20050;-63
2023/07/05 01:31:04;;;;;;;2.10;0.82;;;;;;;23.70;50.18;100165.16;4955554;28;20423;-63
2023/07/05 01:33:46;;;;;;;4.80;1.02;;;;;;;23.65;50.63;100179.50;4954432;28;20039;-63
2023/07/05 01:36:12;;;;;;;2.07;0.80;;;;;;;23.68;49.86;100184.50;4954157;28;20114;-62
2023/07/05 01:38:37;;;;;;;1.55;1.00;;;;;;;23.67;50.30;100182.81;4938267;29;20551;-62
2023/07/05 01:41:07;;;;;;;1.25;0.68;;;;;;;23.67;50.65;100182.81;4955469;28;20031;-63
2023/07/05 01:43:34;;;;;;;1.33;0.80;;;;;;;23.67;50.14;100171.88;4938174;29;20495;-62
2023/07/05 01:46:26;;;;;;;0.95;0.75;;;;;;;23.68;50.38;100162.63;4937917;28;20031;-62
2023/07/05 01:48:58;;;;;;;2.90;0.75;;;;;;;23.68;50.73;100164.53;4953982;28;20047;-63
2023/07/05 01:51:41;;;;;;;0.68;0.60;;;;;;;23.66;50.73;100194.00;4954181;28;20035;-63
2023/07/05 01:54:13;;;;;;;0.77;0.77;;;;;;;23.63;50.69;100200.78;4953825;28;20067;-63
2023/07/05 01:56:48;;;;;;;2.40;0.50;;;;;;;23.66;49.75;100202.22;4953936;28;20040;-63
2023/07/05 01:59:15;;;;;;;1.60;0.65;;;;;;;23.66;50.33;100205.78;4953853;28;20031;-63
2023/07/05 02:01:42;;;;;;;0.68;0.50;;;;;;;23.67;49.38;100214.84;4969858;28;20032;-63
2023/07/05 02:04:09;;;;;;;0.75;0.45;;;;;;;23.66;49.63;100213.16;4953626;28;20031;-63
2023/07/05 02:06:36;;;;;;;0.60;0.60;;;;;;;23.66;49.47;100214.00;4953815;28;20028;-62
2023/07/05 02:09:02;;;;;;;1.30;0.52;;;;;;;23.63;49.25;100228.13;4934740;28;20062;-62
2023/07/05 02:11:27;;;;;;;1.00;0.77;;;;;;;23.64;49.77;100242.63;4937491;29;20492;-62
2023/07/05 02:13:52;;;;;;;4.63;1.00;;;;;;;23.57;48.83;100242.72;4937607;28;20035;-62
2023/07/05 02:16:18;;;;;;;1.42;0.57;;;;;;;23.54;48.46;100254.09;4953903;28;20411;-62
2023/07/05 02:18:43;;;;;;;0.90;0.43;;;;;;;23.52;49.21;100272.63;4953945;28;20507;-63
2023/07/05 02:21:09;;;;;;;1.25;0.80;;;;;;;23.44;48.86;100258.44;4954027;28;20054;-62
2023/07/05 02:23:35;;;;;;;1.38;0.55;;;;;;;23.40;47.69;100277.19;4954076;28;20171;-62
2023/07/05 02:26:04;;;;;;;1.08;0.98;;;;;;;23.34;48.42;100279.97;4969829;28;20506;-62
2023/07/05 02:28:30;;;;;;;0.65;0.45;;;;;;;23.27;47.69;100285.47;4953035;28;20047;-62
2023/07/05 02:30:56;;;;;;;1.30;0.70;;;;;;;23.26;47.72;100293.88;4954416;28;20177;-62
2023/07/05 02:33:21;;;;;;;1.95;0.80;;;;;;;23.22;47.71;100298.16;4957208;28;20486;-63
2023/07/05 02:35:48;;;;;;;7.15;1.15;;;;;;;23.14;47.07;100293.81;4973393;28;20051;-63
2023/07/05 02:38:14;;;;;;;1.15;0.77;;;;;;;23.10;47.57;100298.88;4957397;28;20035;-62
2023/07/05 02:40:39;;;;;;;1.98;1.15;;;;;;;23.04;46.97;100309.84;4957352;28;20023;-62
2023/07/05 02:43:04;;;;;;;1.30;0.75;;;;;;;23.02;47.20;100311.97;4957596;28;20038;-62
2023/07/05 02:45:31;;;;;;;4.55;2.05;;;;;;;23.01;47.16;100321.22;4957533;28;20051;-62
2023/07/05 02:47:57;;;;;;;2.28;1.05;;;;;;;22.99;46.33;100326.09;4973454;28;20020;-63
2023/07/05 02:50:23;;;;;;;1.70;0.93;;;;;;;22.99;46.68;100320.63;4958782;28;20395;-63
2023/07/05 02:52:49;;;;;;;0.70;0.68;;;;;;;22.96;46.51;100321.91;4942488;28;20039;-62
2023/07/05 02:55:14;;;;;;;1.90;1.15;;;;;;;22.90;46.39;100327.41;4958281;28;20039;-62
2023/07/05 02:57:40;;;;;;;2.25;0.75;;;;;;;22.89;46.44;100331.22;4957105;28;20035;-62
2023/07/05 03:00:06;;;;;;;1.00;0.90;;;;;;;22.85;45.66;100327.25;4973257;28;20118;-62
2023/07/05 03:02:32;;;;;;;2.03;0.88;;;;;;;22.84;46.60;100331.88;4973369;28;20049;-62
2023/07/05 03:04:57;;;;;;;4.53;1.20;;;;;;;22.80;46.38;100330.66;4973265;28;20484;-61
2023/07/05 03:07:23;;;;;;;12.45;1.48;;;;;;;22.79;46.20;100337.16;4972983;28;20051;-61
2023/07/05 03:09:49;;;;;;;1.67;0.80;;;;;;;22.75;46.33;100340.56;4940855;28;20043;-62
2023/07/05 03:12:15;;;;;;;4.25;1.30;;;;;;;22.69;46.46;100341.44;4973165;28;20065;-62
2023/07/05 03:14:41;;;;;;;2.55;0.88;;;;;;;22.64;45.78;100333.06;4972749;28;20063;-62
2023/07/05 03:17:06;;;;;;;3.10;1.10;;;;;;;22.60;46.00;100328.00;4957014;28;20496;-62
2023/07/05 03:19:32;;;;;;;1.48;0.88;;;;;;;22.61;45.54;100335.13;4973376;28;20043;-62
2023/07/05 03:21:58;;;;;;;2.35;0.88;;;;;;;22.59;45.46;100336.41;4941095;28;20038;-63
2023/07/05 03:24:24;;;;;;;4.90;1.40;;;;;;;22.54;46.22;100328.88;4957401;28;20082;-62
2023/07/05 03:26:51;;;;;;;3.17;1.13;;;;;;;22.50;45.56;100327.63;4955621;28;20035;-62
2023/07/05 03:29:17;;;;;;;3.83;1.83;;;;;;;22.47;46.22;100344.44;4956945;28;20036;-63
2023/07/05 03:31:42;;;;;;;1.65;1.17;;;;;;;22.47;46.21;100341.72;4940832;29;20047;-62
2023/07/05 03:34:08;;;;;;;1.90;1.08;;;;;;;22.43;45.73;100334.19;4972565;28;20562;-62
2023/07/05 03:36:33;;;;;;;5.15;1.48;;;;;;;22.40;45.72;100338.22;4957510;28;20031;-62
2023/07/05 03:38:59;;;;;;;2.38;1.17;;;;;;;22.36;45.10;100342.41;4957629;28;20047;-63
2023/07/05 03:41:24;;;;;;;4.90;1.58;;;;;;;22.36;45.32;100350.59;4940230;29;20038;-62
2023/07/05 03:43:56;;;;;;;3.85;0.98;;;;;;;22.33;45.10;100348.34;4955795;28;20407;-62
2023/07/05 03:46:23;;;;;;;3.65;1.27;;;;;;;22.32;45.17;100349.38;4956475;28;20027;-62
2023/07/05 03:48:48;;;;;;;4.25;1.25;;;;;;;22.33;45.64;100356.53;4956282;28;20059;-62
2023/07/05 03:51:16;;;;;;;3.95;1.77;;;;;;;22.33;45.32;100345.59;4940389;29;20050;-62
2023/07/05 03:53:42;;;;;;;4.15;1.50;;;;;;;22.31;45.62;100344.97;4957125;28;20023;-62
2023/07/05 03:56:10;;;;;;;2.17;1.48;;;;;;;22.34;45.03;100341.78;4957385;28;20360;-63
2023/07/05 03:58:35;;;;;;;6.50;1.90;;;;;;;22.35;45.38;100346.22;4955950;28;20098;-63
2023/07/05 04:01:12;;;;;;;3.40;1.77;;;;;;;22.32;45.34;100352.09;4939228;28;20039;-63
2023/07/05 04:03:38;;;;;;;7.18;1.90;;;;;;;22.33;45.83;100342.88;4940639;29;20573;-63
2023/07/05 04:06:03;;;;;;;2.58;1.25;;;;;;;22.32;45.43;100352.09;4956973;28;20035;-63
2023/07/05 04:08:29;;;;;;;6.13;1.55;;;;;;;22.31;45.47;100344.97;4924142;29;20151;-66
2023/07/05 04:10:54;;;;;;;3.78;1.48;;;;;;;22.29;45.54;100346.22;4938985;28;20028;-63
2023/07/05 04:13:20;;;;;;;6.78;1.67;;;;;;;22.25;45.04;100345.81;4940005;29;20035;-63
2023/07/05 04:15:45;;;;;;;4.05;1.95;;;;;;;22.25;45.11;100354.00;4950484;28;20034;-62
2023/07/05 04:18:11;;;;;;;4.88;2.10;;;;;;;22.23;45.47;100358.84;4972138;28;20031;-63
2023/07/05 04:20:37;;;;;;;6.35;1.65;;;;;;;22.21;45.48;100355.50;4956083;28;20038;-62
2023/07/05 04:23:03;;;;;;;2.92;1.52;;;;;;;22.19;45.68;100357.63;4924497;29;20035;-62
2023/07/05 04:25:28;;;;;;;5.43;1.90;;;;;;;22.22;45.95;100348.16;4940340;29;20035;-62
2023/07/05 04:27:54;;;;;;;4.20;1.85;;;;;;;22.22;45.84;100362.63;4939864;29;20041;-63
2023/07/05 04:30:19;;;;;;;4.40;1.85;;;;;;;22.27;45.82;100356.53;4957046;28;20040;-62
2023/07/05 04:32:44;;;;;;;4.35;1.90;;;;;;;22.26;45.80;100363.03;4956345;28;20070;-62
2023/07/05 04:35:10;;;;;;;5.95;1.80;;;;;;;22.27;44.69;100357.38;4939097;28;20511;-63
2023/07/05 04:37:35;;;;;;;6.40;2.47;;;;;;;22.26;44.87;100355.69;4940218;29;20040;-64
2023/07/05 04:40:00;;;;;;;5.55;2.13;;;;;;;22.27;45.48;100360.13;4957260;28;20091;-62
2023/07/05 04:42:26;;;;;;;5.18;1.70;;;;;;;22.26;45.19;100363.88;4957245;28;20053;-62
2023/07/05 04:44:53;;;;;;;4.28;1.88;;;;;;;22.29;45.23;100366.19;4956788;28;20036;-63
2023/07/05 04:47:18;;;;;;;4.30;1.58;;;;;;;22.29;44.33;100374.38;4956453;28;20051;-62
2023/07/05 04:49:46;;;;;;;2.55;1.25;;;;;;;22.30;44.76;100376.06;4923265;29;20044;-63
2023/07/05 04:52:12;;;;;;;4.03;1.83;;;;;;;22.29;45.07;100374.38;4956307;28;20098;-62
2023/07/05 04:54:37;;;;;;;3.15;1.52;;;;;;;22.30;45.22;100375.22;4937968;29;20035;-62
2023/07/05 04:57:02;;;;;;;4.53;1.80;;;;;;;22.28;44.98;100375.41;4924146;29;20059;-63
2023/07/05 04:59:29;;;;;;;4.35;1.50;;;;;;;22.24;44.12;100354.25;4972857;28;20043;-62
2023/07/05 05:01:55;;;;;;;3.95;2.30;;;;;;;22.31;44.88;100372.25;4939887;29;20035;-62
2023/07/05 05:04:20;;;;;;;4.95;2.22;;;;;;;22.31;44.21;100372.25;4970758;28;20038;-62
2023/07/05 05:06:46;;;;;;;3.70;1.58;;;;;;;22.32;44.67;100379.41;4970686;28;20040;-66
2023/07/05 05:09:11;;;;;;;4.05;1.73;;;;;;;22.34;44.23;100371.81;4938866;29;20088;-62
2023/07/05 05:11:36;;;;;;;5.53;1.45;;;;;;;22.33;43.78;100396.63;4970846;28;20039;-62
2023/07/05 05:14:02;;;;;;;2.90;1.27;;;;;;;22.29;44.17;100388.00;4955866;28;20399;-62
2023/07/05 05:16:27;;;;;;;7.38;1.52;;;;;;;22.32;44.54;100392.19;4955090;28;20052;-62
2023/07/05 05:18:52;;;;;;;3.45;1.63;;;;;;;22.29;44.43;100389.91;4970783;28;20035;-64
2023/07/05 05:21:18;;;;;;;2.47;1.48;;;;;;;22.27;43.76;100392.03;4955986;28;20039;-65
2023/07/05 05:23:44;;;;;;;2.20;1.17;;;;;;;22.26;43.81;100407.53;4955874;28;20454;-63
2023/07/05 05:26:09;;;;;;;3.60;1.65;;;;;;;22.32;43.40;100406.69;4938809;29;20570;-62
2023/07/05 05:28:36;;;;;;;5.05;1.65;;;;;;;22.37;44.03;100397.84;4939249;28;20035;-63
2023/07/05 05:31:04;;;;;;;4.38;1.20;;;;;;;22.34;44.07;100415.50;4939276;29;20522;-61
2023/07/05 05:33:29;;;;;;;1.67;0.90;;;;;;;22.30;43.85;100406.06;4954323;28;20051;-62
2023/07/05 05:35:55;;;;;;;3.42;1.10;;;;;;;22.28;44.13;100419.06;4922742;29;20070;-64
2023/07/05 05:38:20;;;;;;;7.85;1.40;;;;;;;22.24;44.08;100408.81;4939141;29;20125;-63
2023/07/05 05:40:48;;;;;;;3.35;1.30;;;;;;;22.18;43.96;100413.25;4957018;28;20046;-65
2023/07/05 05:43:14;;;;;;;3.00;1.38;;;;;;;22.20;44.30;100427.50;4956623;28;20032;-63
2023/07/05 05:45:41;;;;;;;2.47;0.90;;;;;;;22.21;43.71;100421.00;4938984;28;20043;-63
2023/07/05 05:48:06;;;;;;;2.55;1.10;;;;;;;22.30;43.71;100430.63;4954043;28;20166;-63
2023/07/05 05:50:32;;;;;;;4.75;1.25;;;;;;;22.43;43.46;100422.41;4954000;28;20098;-63
2023/07/05 05:52:57;;;;;;;6.03;1.13;;;;;;;22.54;42.98;100424.44;4970599;28;20039;-63
2023/07/05 05:55:24;;;;;;;3.83;1.58;;;;;;;22.56;42.50;100414.13;4938188;29;20035;-63
2023/07/05 05:57:49;;;;;;;1.70;1.10;;;;;;;22.55;43.42;100423.41;4955263;28;20094;-63
2023/07/05 06:00:15;;;;;;;4.72;1.10;;;;;;;22.54;42.54;100437.25;4954033;28;20110;-63
2023/07/05 06:02:41;;;;;;;7.32;1.40;;;;;;;22.68;42.61;100427.97;4950749;28;20068;-63
2023/07/05 06:05:08;;;;;;;2.88;1.20;;;;;;;22.78;43.09;100433.81;4935909;29;20044;-63
2023/07/05 06:07:33;;;;;;;3.90;1.10;;;;;;;22.84;43.10;100443.84;4934767;28;20028;-63
2023/07/05 06:09:59;;;;;;;1.88;1.35;;;;;;;22.86;42.99;100438.19;4921118;29;20559;-67
2023/07/05 06:12:24;;;;;;;1.80;1.05;;;;;;;22.88;42.33;100444.28;4921017;29;20098;-63
2023/07/05 06:14:50;;;;;;;3.95;1.20;;;;;;;22.85;42.08;100450.16;4935292;28;20044;-64
2023/07/05 06:17:19;;;;;;;6.45;1.10;;;;;;;22.82;43.08;100454.19;4920123;28;20032;-63
2023/07/05 06:19:45;;;;;;;4.80;1.27;;;;;;;22.87;42.36;100464.44;4935133;28;20035;-63
2023/07/05 06:22:10;;;;;;;2.30;1.00;;;;;;;22.92;42.61;100454.53;4903124;29;20083;-63
2023/07/05 06:24:35;;;;;;;3.38;0.88;;;;;;;22.95;43.09;100458.72;4918837;29;20035;-62
2023/07/05 06:27:01;;;;;;;2.97;0.90;;;;;;;22.93;42.67;100479.97;4952819;28;20036;-63
2023/07/05 06:29:26;;;;;;;4.70;1.42;;;;;;;22.87;42.18;100470.75;4941160;28;20556;-63
2023/07/05 06:31:52;;;;;;;5.85;0.98;;;;;;;22.76;42.42;100462.38;4938924;28;20043;-64
2023/07/05 06:34:17;;;;;;;3.03;1.25;;;;;;;22.75;42.81;100472.50;4939843;28;20071;-65
2023/07/05 06:36:42;;;;;;;2.95;1.75;;;;;;;22.76;42.63;100478.78;4928072;28;20472;-70
2023/07/05 06:39:08;;;;;;;2.35;0.90;;;;;;;22.74;43.07;100503.59;4942846;28;20063;-63
2023/07/05 06:41:33;;;;;;;3.15;0.90;;;;;;;22.70;42.29;100490.59;4948088;29;20046;-65
2023/07/05 06:43:59;;;;;;;3.38;1.05;;;;;;;22.62;42.81;100495.19;4952956;28;20043;-68
2023/07/05 06:46:24;;;;;;;3.10;1.25;;;;;;;22.55;42.35;100494.38;4925414;29;20038;-63
2023/07/05 06:48:50;;;;;;;2.97;1.02;;;;;;;22.55;42.64;100490.81;4953906;28;20035;-63
2023/07/05 06:51:17;;;;;;;4.15;1.10;;;;;;;22.57;42.49;100500.47;4937339;29;20038;-62
2023/07/05 06:53:43;;;;;;;2.35;1.00;;;;;;;22.59;43.30;100495.63;4953745;28;20035;-63
2023/07/05 06:56:11;;;;;;;4.20;1.30;;;;;;;22.71;42.95;100506.75;4937763;29;20110;-64
2023/07/05 06:58:36;;;;;;;3.33;1.08;;;;;;;22.74;42.38;100505.47;4938286;29;20032;-63
2023/07/05 07:01:03;;;;;;;3.08;1.08;;;;;;;22.89;42.36;100527.91;4953499;28;20038;-63
2023/07/05 07:03:28;;;;;;;2.15;0.80;;;;;;;23.21;42.27;100521.44;4953606;28;20058;-63
2023/07/05 07:05:55;;;;;;;4.68;1.30;;;;;;;23.17;41.83;100514.75;4922163;29;20054;-63
2023/07/05 07:08:23;;;;;;;1.17;0.77;;;;;;;23.12;42.10;100517.28;4953255;28;20039;-63
2023/07/05 07:10:48;;;;;;;2.25;0.80;;;;;;;23.06;42.99;100526.38;4937465;29;20102;-63
2023/07/05 07:13:15;;;;;;;1.45;0.70;;;;;;;23.03;42.27;100529.53;4954850;28;20498;-63
2023/07/05 07:15:41;;;;;;;2.20;0.70;;;;;;;23.13;42.20;100543.56;4954557;28;20170;-63
2023/07/05 07:18:07;;;;;;;4.38;1.42;;;;;;;23.23;41.71;100532.97;4938424;29;20523;-63
2023/07/05 07:20:33;;;;;;;1.65;0.70;;;;;;;23.45;41.07;100539.81;4956966;28;20123;-63
2023/07/05 07:22:59;;;;;;;2.80;0.80;;;;;;;23.87;41.12;100542.91;4925202;29;20581;-63
2023/07/05 07:25:24;;;;;;;2.05;0.80;;;;;;;24.06;40.47;100541.91;4956967;28;20035;-65
2023/07/05 07:27:50;;;;;;;6.18;0.80;;;;;;;24.55;40.19;100541.84;4957732;28;20090;-63
2023/07/05 07:30:15;;;;;;;4.47;1.05;;;;;;;24.77;39.67;100539.50;4940376;29;20058;-63
2023/07/05 07:32:41;;;;;;;1.45;0.45;;;;;;;24.83;40.39;100544.94;4940548;29;20102;-63
2023/07/05 07:35:06;;;;;;;3.60;0.73;;;;;;;24.80;40.43;100544.56;4924255;29;20055;-64
2023/07/05 07:37:33;;;;;;;2.65;1.05;;;;;;;24.77;40.14;100545.81;4924689;29;20052;-63
2023/07/05 07:39:59;;;;;;;2.58;0.47;;;;;;;24.86;39.80;100555.44;4956392;28;20393;-63
2023/07/05 07:42:24;;;;;;;5.50;0.80;;;;;;;24.84;40.18;100552.13;4940261;28;20035;-63
2023/07/05 07:44:53;;;;;;;6.10;1.70;;;;;;;24.80;39.41;100550.88;4956302;28;20035;-63
2023/07/05 07:47:18;;;;;;;1.38;0.63;;;;;;;24.88;39.53;100572.50;4956102;28;20059;-63
2023/07/05 07:49:43;;;;;;;3.22;0.73;;;;;;;25.08;38.99;100565.94;4940138;29;20066;-64
2023/07/05 07:52:11;;;;;;;0.93;0.63;;;;;;;25.14;38.98;100581.47;4939988;29;20036;-63
2023/07/05 07:54:38;;;;;;;0.73;0.70;;;;;;;25.26;39.22;100565.91;4956334;28;20035;-63
2023/07/05 07:57:05;;;;;;;2.67;0.93;;;;;;;25.88;38.56;100570.91;4940364;29;20118;-65
2023/07/05 07:59:30;;;;;;;5.80;0.80;;;;;;;26.20;38.17;100573.41;4972129;28;20062;-64
2023/07/05 08:01:56;;;;;;;1.13;0.82;;;;;;;26.33;38.18;100578.66;4924818;29;20059;-64
2023/07/05 08:04:21;;;;;;;1.40;0.57;;;;;;;26.73;37.79;100576.84;4957293;28;20035;-63
2023/07/05 08:06:49;;;;;;;0.88;0.50;;;;;;;26.84;37.78;100576.03;4940214;28;20035;-63
2023/07/05 08:09:28;;;;;;;1.70;0.60;;;;;;;26.69;38.41;100572.91;4955801;28;20039;-63
2023/07/05 08:11:57;;;;;;;2.42;0.70;;;;;;;26.72;37.80;100579.84;4957141;28;20083;-63
2023/07/05 08:14:22;;;;;;;1.20;1.05;;;;;;;27.02;37.68;100583.31;4955794;28;20035;-63
2023/07/05 08:16:47;;;;;;;7.30;0.80;;;;;;;26.94;37.13;100576.25;4957350;28;20034;-64
2023/07/05 08:19:14;;;;;;;3.40;1.52;;;;;;;26.91;37.19;100593.22;4957442;28;20035;-65
2023/07/05 08:21:42;;;;;;;3.75;0.80;;;;;;;26.93;36.63;100590.25;4955993;28;20514;-65
2023/07/05 08:24:07;;;;;;;1.33;0.65;;;;;;;27.31;36.19;100597.91;4955729;28;20027;-63
2023/07/05 08:26:33;;;;;;;2.17;0.73;;;;;;;27.45;36.69;100585.56;4939746;29;20186;-65
2023/07/05 08:28:59;;;;;;;2.83;0.70;;;;;;;27.97;36.15;100603.63;4939852;28;20484;-63
2023/07/05 08:31:24;;;;;;;2.17;0.82;;;;;;;28.08;36.02;100610.19;4958006;28;20434;-64
2023/07/05 08:33:51;;;;;;;5.82;1.00;;;;;;;27.89;36.45;100606.78;4972619;28;20031;-64
2023/07/05 08:36:32;;;;;;;7.40;0.85;;;;;;;27.70;35.76;100613.59;4956616;28;20043;-63
2023/07/05 08:38:59;;;;;;;2.85;0.40;;;;;;;27.55;36.02;100618.81;4939148;29;20032;-64
2023/07/05 08:41:41;;;;;;;2.80;0.70;;;;;;;27.41;36.43;100626.53;4954892;28;20399;-64
2023/07/05 08:44:15;;;;;;;2.17;0.52;;;;;;;27.32;36.07;100627.09;4956470;28;20534;-64
2023/07/05 08:46:41;;;;;;;4.88;0.95;;;;;;;27.35;35.91;100627.47;4956324;28;20047;-65
2023/07/05 08:49:18;;;;;;;3.92;0.55;;;;;;;27.54;35.70;100634.47;4939172;29;20396;-64
2023/07/05 08:51:43;;;;;;;3.75;1.05;;;;;;;27.36;35.47;100644.81;4955166;28;20050;-65
2023/07/05 08:54:12;;;;;;;3.92;0.73;;;;;;;27.30;35.12;100654.03;4955255;28;20039;-63
2023/07/05 08:56:41;;;;;;;5.18;1.50;;;;;;;27.74;35.21;100659.66;4955185;28;20480;-63
2023/07/05 08:59:17;;;;;;;0.98;0.70;;;;;;;27.56;34.66;100656.25;4939140;29;20050;-63
2023/07/05 09:01:44;;;;;;;4.57;0.90;;;;;;;27.47;34.85;100657.72;4954803;28;20039;-63
2023/07/05 09:04:12;;;;;;;4.18;0.93;;;;;;;27.48;34.47;100659.38;4954793;28;20035;-64
2023/07/05 09:07:08;;;;;;;9.80;1.48;;;;;;;27.98;34.20;100674.16;4938713;29;20054;-64
2023/07/05 09:10:07;;;;;;;5.93;0.80;;;;;;;27.92;34.54;100663.31;4956675;28;20027;-65
2023/07/05 09:12:48;;;;;;;1.73;0.80;;;;;;;27.86;34.28;100684.41;4943868;29;20039;-63
2023/07/05 09:15:23;;;;;;;1.92;0.57;;;;;;;27.91;34.67;100698.25;4970559;28;20035;-64
2023/07/05 09:18:09;;;;;;;2.70;1.00;;;;;;;28.36;32.64;100684.53;4954607;28;20468;-63
2023/07/05 09:20:38;;;;;;;3.80;0.88;;;;;;;28.32;34.01;100680.59;4938425;29;20036;-63
2023/07/05 09:23:14;;;;;;;9.35;0.77;;;;;;;28.25;33.40;100683.50;4955704;28;20504;-63
2023/07/05 09:25:42;;;;;;;3.33;0.77;;;;;;;28.31;33.53;100693.53;4954678;28;20054;-63
2023/07/05 09:28:16;;;;;;;3.92;1.52;;;;;;;28.22;33.40;100684.00;4938095;29;20115;-63
2023/07/05 09:30:41;;;;;;;5.15;1.38;;;;;;;28.41;32.70;100694.78;4948814;29;20028;-64
2023/07/05 09:33:15;;;;;;;4.63;0.70;;;;;;;28.64;32.60;100702.94;4924542;28;20038;-65
2023/07/05 09:35:44;;;;;;;3.30;0.85;;;;;;;29.00;32.27;100713.44;4936140;28;20052;-64
2023/07/05 09:38:15;;;;;;;3.45;0.60;;;;;;;29.68;31.57;100715.78;4919148;29;20538;-64
2023/07/05 09:40:47;;;;;;;4.85;1.02;;;;;;;29.81;31.32;100718.22;4934306;28;20408;-64
2023/07/05 09:43:12;;;;;;;;;;;;;;;30.41;31.71;100719.97;4919604;29;20031;-64
2023/07/05 09:45:38;;;;;;;4.00;1.00;;;;;;;30.36;31.62;100706.91;4934848;28;20346;-65
2023/07/05 09:48:06;;;;;;;4.97;1.48;;;;;;;29.97;31.88;100720.03;4934741;28;20918;-65
2023/07/05 09:50:31;;;;;;;3.92;0.90;;;;;;;29.70;32.24;100732.97;4934793;28;20411;-65
2023/07/05 09:53:02;;;;;;;4.45;1.10;;;;;;;30.62;30.71;100729.28;4934701;28;20038;-64
2023/07/05 09:55:29;;;;;;;4.57;1.40;;;;;;;30.96;30.26;100711.34;4934667;28;20518;-64
2023/07/05 09:57:54;;;;;;;8.23;0.70;;;;;;;30.47;30.99;100733.59;4934625;28;20039;-64
2023/07/05 10:00:32;;;;;;;5.40;0.55;;;;;;;30.30;30.97;100743.03;4902963;29;20031;-64
2023/07/05 10:03:11;;;;;;;2.35;0.77;;;;;;;30.57;30.30;100769.63;4954797;28;20567;-64
2023/07/05 10:05:37;;;;;;;143.73;137.07;;;;;;;31.43;29.57;100744.56;4953779;28;20090;-64
2023/07/05 10:08:04;;;;;;;3.92;0.80;;;;;;;31.45;29.58;100737.66;4937780;29;20039;-64
2023/07/05 10:10:36;;;;;;;3.15;0.82;;;;;;;31.42;29.55;100746.50;4937747;29;20038;-64
2023/07/05 10:13:13;;;;;;;2.88;1.20;;;;;;;32.62;28.53;100753.63;4953669;28;20034;-64
2023/07/05 10:16:02;;;;;;;4.35;0.98;;;;;;;32.55;28.74;100753.03;4953543;28;20027;-64
2023/07/05 10:18:33;;;;;;;2.40;1.02;;;;;;;33.16;27.77;100747.53;4952008;28;20089;-65
2023/07/05 10:21:02;;;;;;;13.23;1.33;;;;;;;33.62;27.91;100765.75;4938173;29;20547;-65
2023/07/05 10:23:30;;;;;;;4.13;0.70;;;;;;;33.40;27.74;100748.56;4954548;28;20781;-64
2023/07/05 10:26:01;;;;;;;2.35;1.00;;;;;;;32.94;27.84;100766.41;4938231;29;20392;-65
2023/07/05 10:28:29;;;;;;;1.95;0.60;;;;;;;32.43;27.79;100759.94;4937624;29;20412;-64
2023/07/05 10:31:05;;;;;;;2.33;0.60;;;;;;;31.94;28.49;100770.63;4953709;28;20031;-64
2023/07/05 10:33:32;;;;;;;4.75;0.90;;;;;;;31.93;28.29;100796.66;4938322;29;20035;-64
2023/07/05 10:36:12;;;;;;;1.30;0.93;;;;;;;32.62;28.04;100774.97;4953654;28;20542;-64
2023/07/05 10:38:50;;;;;;;3.50;1.70;;;;;;;32.80;26.57;100772.50;4953906;28;20031;-64
2023/07/05 10:41:19;;;;;;;2.70;1.35;;;;;;;32.93;27.15;100775.81;4970434;28;20122;-63
2023/07/05 10:44:06;;;;;;;3.05;1.00;;;;;;;32.66;27.45;100787.22;4954047;28;20035;-64
2023/07/05 10:46:34;;;;;;;10.98;1.40;;;;;;;32.63;26.68;100788.59;4953668;28;20454;-64
2023/07/05 10:49:01;;;;;;;2.25;0.52;;;;;;;32.69;27.89;100787.47;4923112;28;20183;-64
2023/07/05 10:51:33;;;;;;;6.53;1.83;;;;;;;33.01;27.26;100783.59;4937754;28;20031;-63
2023/07/05 10:54:27;;;;;;;3.53;1.67;;;;;;;33.86;26.46;100775.16;4956083;28;20027;-64
2023/07/05 10:56:53;;;;;;;7.35;1.23;;;;;;;33.86;26.44;100780.72;4957583;28;20043;-64
2023/07/05 10:59:57;;;;;;;5.72;1.80;;;;;;;33.63;26.79;100775.78;4941376;29;20035;-64
2023/07/05 11:02:32;;;;;;;3.00;0.70;;;;;;;34.23;25.52;100785.81;4959168;28;20036;-64
2023/07/05 11:04:58;;;;;;;2.67;0.60;;;;;;;33.67;26.49;100781.59;4958536;28;20459;-64
2023/07/05 11:07:25;;;;;;;1.10;0.40;;;;;;;32.90;26.64;100804.97;4956837;28;20448;-64
2023/07/05 11:09:52;;;;;;;3.75;0.73;;;;;;;32.20;27.08;100786.25;4957118;28;20031;-66
2023/07/05 11:12:21;;;;;;;4.30;1.02;;;;;;;32.31;27.50;100812.91;4958190;28;20062;-64
2023/07/05 11:14:47;;;;;;;3.65;0.95;;;;;;;33.14;26.47;100805.31;4956912;28;20118;-64
2023/07/05 11:17:35;;;;;;;4.60;0.65;;;;;;;33.37;26.55;100801.91;4952915;29;20069;-64
2023/07/05 11:20:01;;;;;;;3.65;1.08;;;;;;;33.98;26.59;100802.59;4939243;28;20525;-64
2023/07/05 11:22:40;;;;;;;4.30;0.80;;;;;;;34.60;26.08;100788.13;4938133;28;20110;-64
2023/07/05 11:25:12;;;;;;;3.58;0.93;;;;;;;34.83;25.72;100809.69;4924922;28;20066;-64
2023/07/05 11:27:38;;;;;;;;;;;;;;;34.69;26.02;100817.00;4939828;28;20033;-65
2023/07/05 11:30:05;;;;;;;2.95;0.80;;;;;;;34.36;26.01;100813.03;4957763;28;19902;-64